Time;durP1;ratioP1;P1;durP2;ratioP2;P2;SDS_P1;SDS_P2;PMS_P1;PMS_P2;Temp;Humidity;BMP_temperature;BMP_pressure;BME280_temperature;BME280_humidity;BME280_pressure;Samples;Min_cycle;Max_cycle;Signal;HPM_P1;HPM_P2
2021/05/02 00:00:24;;;;;;;8.25;7.45;;;10.00;43.30;;;;;;5030714;28;20069;-80
2021/05/02 00:02:51;;;;;;;8.02;7.32;;;10.00;43.40;;;;;;5043473;28;20071;-80
2021/05/02 00:05:18;;;;;;;7.60;6.90;;;9.90;43.20;;;;;;5032629;28;20025;-80
2021/05/02 00:07:46;;;;;;;7.85;7.13;;;9.90;43.30;;;;;;5042375;28;20033;-79
2021/05/02 00:10:14;;;;;;;8.40;7.70;;;9.80;43.20;;;;;;5021383;28;20191;-80
2021/05/02 00:12:41;;;;;;;7.70;6.78;;;9.80;43.30;;;;;;5043052;28;20033;-80
2021/05/02 00:15:10;;;;;;;8.02;7.22;;;9.80;43.30;;;;;;5029756;28;20036;-80
2021/05/02 00:17:38;;;;;;;7.70;7.00;;;9.80;43.40;;;;;;5032177;28;20056;-80
2021/05/02 00:20:06;;;;;;;8.02;7.22;;;9.70;43.30;;;;;;5031459;28;20025;-80
2021/05/02 00:22:34;;;;;;;7.40;6.70;;;9.60;43.10;;;;;;5038690;28;20514;-81
2021/05/02 00:25:04;;;;;;;7.65;6.95;;;9.60;43.20;;;;;;5026458;28;20021;-82
2021/05/02 00:27:30;;;;;;;8.20;7.43;;;9.60;43.20;;;;;;5011427;28;20141;-80
2021/05/02 00:29:57;;;;;;;8.05;7.35;;;9.50;43.10;;;;;;5002133;28;20033;-80
2021/05/02 00:32:24;;;;;;;7.82;7.22;;;9.50;43.10;;;;;;4992306;28;20123;-82
2021/05/02 00:34:51;;;;;;;9.00;7.82;;;9.40;43.00;;;;;;5011214;28;20248;-82
2021/05/02 00:37:18;;;;;;;8.48;7.68;;;9.50;43.30;;;;;;5018649;28;20049;-81
2021/05/02 00:39:45;;;;;;;7.50;6.80;;;9.40;43.10;;;;;;5017365;28;20033;-81
2021/05/02 00:42:20;;;;;;;8.27;7.47;;;9.30;43.00;;;;;;4999517;28;20125;-81
2021/05/02 00:44:51;;;;;;;8.55;7.85;;;9.30;43.10;;;;;;4991505;28;20401;-81
2021/05/02 00:47:23;;;;;;;7.90;7.25;;;9.30;43.10;;;;;;5016060;28;20515;-81
2021/05/02 00:49:58;;;;;;;8.23;7.43;;;9.20;43.00;;;;;;5012814;28;20030;-80
2021/05/02 00:52:38;;;;;;;8.40;7.63;;;9.20;43.10;;;;;;5002583;28;20546;-81
2021/05/02 00:55:14;;;;;;;7.78;7.03;;;9.10;43.00;;;;;;5010144;28;20157;-81
2021/05/02 00:58:03;;;;;;;8.93;7.30;;;9.10;43.00;;;;;;5022211;28;20042;-82
2021/05/02 01:00:32;;;;;;;7.78;7.00;;;9.10;43.10;;;;;;5014485;28;20036;-81
2021/05/02 01:03:00;;;;;;;8.15;7.30;;;9.00;42.80;;;;;;5025494;28;20130;-81
2021/05/02 01:05:31;;;;;;;8.68;7.80;;;9.00;42.90;;;;;;5018502;28;20079;-80
2021/05/02 01:08:00;;;;;;;8.80;8.00;;;8.90;42.80;;;;;;5028513;28;20025;-81
2021/05/02 01:10:27;;;;;;;8.38;7.57;;;8.90;42.90;;;;;;5014739;28;20060;-82
2021/05/02 01:12:58;;;;;;;9.10;8.30;;;8.90;42.90;;;;;;5018944;28;20051;-81
2021/05/02 01:15:32;;;;;;;8.07;7.28;;;8.80;42.80;;;;;;4975885;28;20030;-80
2021/05/02 01:18:07;;;;;;;8.15;7.35;;;8.80;42.80;;;;;;4992416;28;20038;-80
2021/05/02 01:20:35;;;;;;;11.55;7.22;;;8.80;43.00;;;;;;5002499;28;20124;-80
2021/05/02 01:23:26;;;;;;;7.53;6.72;;;8.70;42.70;;;;;;5016747;28;20036;-80
2021/05/02 01:25:58;;;;;;;8.20;7.40;;;8.70;42.80;;;;;;5024906;28;20055;-81
2021/05/02 01:28:25;;;;;;;8.20;7.47;;;8.60;42.70;;;;;;5043709;28;20041;-80
2021/05/02 01:30:52;;;;;;;9.15;8.25;;;8.60;42.70;;;;;;5008408;28;20472;-81
2021/05/02 01:33:19;;;;;;;7.78;7.03;;;8.60;42.70;;;;;;5016421;28;20060;-80
2021/05/02 01:35:45;;;;;;;8.68;7.82;;;8.60;42.80;;;;;;5023512;28;20544;-81
2021/05/02 01:38:12;;;;;;;7.72;7.03;;;8.50;42.70;;;;;;5011588;28;20567;-81
2021/05/02 01:40:39;;;;;;;8.77;7.95;;;8.40;42.60;;;;;;5028527;28;20026;-80
2021/05/02 01:43:05;;;;;;;8.88;7.97;;;8.40;42.60;;;;;;5029095;28;20029;-80
2021/05/02 01:45:31;;;;;;;7.60;6.90;;;8.40;42.70;;;;;;5026288;28;20419;-81
2021/05/02 01:48:06;;;;;;;7.90;7.10;;;8.30;42.50;;;;;;5009392;28;20376;-81
2021/05/02 01:50:50;;;;;;;8.88;8.07;;;8.30;42.70;;;;;;5011680;28;20061;-81
2021/05/02 01:53:17;;;;;;;7.70;7.00;;;8.30;42.70;;;;;;4994607;28;20030;-81
2021/05/02 01:55:45;;;;;;;7.93;7.22;;;8.20;42.50;;;;;;5012486;28;20484;-81
2021/05/02 01:58:11;;;;;;;8.07;7.10;;;8.20;42.60;;;;;;4994453;28;20038;-81
2021/05/02 02:00:51;;;;;;;8.00;7.30;;;8.10;42.40;;;;;;5012397;28;20117;-81
2021/05/02 02:03:18;;;;;;;8.40;7.63;;;8.10;42.60;;;;;;4995048;28;20485;-81
2021/05/02 02:05:46;;;;;;;8.73;7.43;;;8.10;42.50;;;;;;4994540;28;20038;-81
2021/05/02 02:08:12;;;;;;;7.97;7.28;;;8.10;42.60;;;;;;5010962;28;20037;-81
2021/05/02 02:10:39;;;;;;;7.90;7.20;;;8.10;42.60;;;;;;5011899;28;20060;-81
2021/05/02 02:13:08;;;;;;;7.70;6.90;;;8.10;42.60;;;;;;5012253;28;20034;-80
2021/05/02 02:15:34;;;;;;;8.57;7.70;;;8.00;42.50;;;;;;4994671;28;20283;-80
2021/05/02 02:18:01;;;;;;;7.60;6.63;;;8.00;42.50;;;;;;5027962;28;20038;-81
2021/05/02 02:20:29;;;;;;;8.23;7.43;;;8.00;42.60;;;;;;4994366;28;20148;-81
2021/05/02 02:22:59;;;;;;;8.32;6.97;;;7.90;42.40;;;;;;5012353;28;20029;-82
2021/05/02 02:25:31;;;;;;;8.05;7.10;;;7.90;42.50;;;;;;4994094;28;20489;-82
2021/05/02 02:28:02;;;;;;;6.90;6.30;;;7.90;42.50;;;;;;4994232;28;20038;-81
2021/05/02 02:30:33;;;;;;;11.50;8.05;;;7.80;42.40;;;;;;4994725;28;20060;-81
2021/05/02 02:33:01;;;;;;;8.25;7.40;;;7.80;42.50;;;;;;5011551;28;20030;-81
2021/05/02 02:35:29;;;;;;;7.93;7.20;;;7.70;42.20;;;;;;5011802;28;20030;-81
2021/05/02 02:37:57;;;;;;;7.93;7.32;;;7.70;42.30;;;;;;5011225;28;20033;-82
2021/05/02 02:40:24;;;;;;;8.80;7.88;;;7.60;42.20;;;;;;5012217;28;20029;-82
2021/05/02 02:42:51;;;;;;;8.05;7.32;;;7.70;42.40;;;;;;5013598;28;20161;-80
2021/05/02 02:45:18;;;;;;;7.55;6.95;;;7.60;42.30;;;;;;5012248;28;20092;-80
2021/05/02 02:47:53;;;;;;;8.18;7.05;;;7.60;42.30;;;;;;5013259;28;20476;-80
2021/05/02 02:50:20;;;;;;;7.40;6.60;;;7.50;42.20;;;;;;5010420;28;20026;-80
2021/05/02 02:52:48;;;;;;;7.85;7.05;;;7.50;42.20;;;;;;5011518;28;20026;-81
2021/05/02 02:55:17;;;;;;;8.52;7.28;;;7.50;42.30;;;;;;5011468;28;20096;-80
2021/05/02 02:58:03;;;;;;;7.45;6.75;;;7.40;42.20;;;;;;5011200;28;20133;-81
2021/05/02 03:00:31;;;;;;;7.95;7.20;;;7.40;42.20;;;;;;5011632;28;20030;-79
2021/05/02 03:03:08;;;;;;;8.25;7.50;;;7.40;42.20;;;;;;5011173;28;20556;-79
2021/05/02 03:05:36;;;;;;;7.40;6.70;;;7.30;42.10;;;;;;5011334;28;20052;-80
2021/05/02 03:08:05;;;;;;;7.68;6.97;;;7.30;42.10;;;;;;5011433;28;20068;-79
2021/05/02 03:10:32;;;;;;;8.38;7.63;;;7.30;42.20;;;;;;5011315;28;20038;-79
2021/05/02 03:12:59;;;;;;;8.05;6.78;;;7.30;42.20;;;;;;5013376;28;20072;-79
2021/05/02 03:15:26;;;;;;;6.90;6.28;;;7.20;42.00;;;;;;5014807;28;20065;-80
2021/05/02 03:18:04;;;;;;;7.65;7.05;;;7.20;42.10;;;;;;5015022;28;20046;-79
2021/05/02 03:20:38;;;;;;;8.15;7.05;;;7.20;42.20;;;;;;5014887;28;20026;-79
2021/05/02 03:23:27;;;;;;;7.63;6.93;;;7.20;42.20;;;;;;4997448;28;20033;-81
2021/05/02 03:25:56;;;;;;;8.05;7.35;;;7.10;42.00;;;;;;5014417;28;20044;-79
2021/05/02 03:28:35;;;;;;;7.68;6.93;;;7.10;42.00;;;;;;5014940;28;20091;-79
2021/05/02 03:31:03;;;;;;;8.15;7.45;;;7.10;42.00;;;;;;5014639;28;20034;-79
2021/05/02 03:33:36;;;;;;;7.78;7.00;;;7.00;41.90;;;;;;4996829;28;20480;-79
2021/05/02 03:36:09;;;;;;;7.72;6.93;;;7.00;42.00;;;;;;5014511;28;20037;-79
2021/05/02 03:38:41;;;;;;;7.70;6.93;;;7.00;42.00;;;;;;5014666;28;20121;-80
2021/05/02 03:41:07;;;;;;;7.95;7.25;;;6.90;41.80;;;;;;5013371;28;20026;-79
2021/05/02 03:43:37;;;;;;;8.10;7.40;;;6.90;41.80;;;;;;5014629;28;20103;-80
2021/05/02 03:46:04;;;;;;;7.05;6.45;;;6.90;41.80;;;;;;5014874;28;20069;-79
2021/05/02 03:48:31;;;;;;;8.10;7.30;;;6.80;41.70;;;;;;5014359;28;20120;-80
2021/05/02 03:50:57;;;;;;;7.70;7.00;;;6.80;41.70;;;;;;5014478;28;20116;-80
2021/05/02 03:53:23;;;;;;;7.78;6.95;;;6.80;41.80;;;;;;4997153;28;20056;-81
2021/05/02 03:55:49;;;;;;;8.00;7.18;;;6.70;41.60;;;;;;5016006;28;20034;-80
2021/05/02 03:58:16;;;;;;;7.13;6.47;;;6.70;41.70;;;;;;5025549;28;20052;-80
2021/05/02 04:00:43;;;;;;;7.25;6.57;;;6.70;41.80;;;;;;5027308;28;20085;-80
2021/05/02 04:03:13;;;;;;;8.15;7.35;;;6.70;41.80;;;;;;5023635;28;20468;-79
2021/05/02 04:05:40;;;;;;;7.88;7.13;;;6.70;41.90;;;;;;5018908;28;20164;-79
2021/05/02 04:08:06;;;;;;;8.10;7.28;;;6.70;41.90;;;;;;5014807;28;20370;-79
2021/05/02 04:10:32;;;;;;;8.13;7.43;;;6.60;41.70;;;;;;5017502;28;20029;-80
2021/05/02 04:12:58;;;;;;;7.95;7.15;;;6.50;41.60;;;;;;5014683;28;20048;-80
2021/05/02 04:15:24;;;;;;;8.32;7.47;;;6.50;41.60;;;;;;5015882;28;20484;-81
2021/05/02 04:17:50;;;;;;;7.20;6.55;;;6.50;41.60;;;;;;4996733;28;20073;-80
2021/05/02 04:20:17;;;;;;;8.02;7.22;;;6.50;41.70;;;;;;5014415;28;20034;-79
2021/05/02 04:22:43;;;;;;;8.68;7.80;;;6.50;41.70;;;;;;5029674;28;20417;-80
2021/05/02 04:25:10;;;;;;;7.53;6.82;;;6.40;41.50;;;;;;5013234;28;20532;-81
2021/05/02 04:27:36;;;;;;;7.15;6.53;;;6.40;41.60;;;;;;5013766;28;20295;-80
2021/05/02 04:30:02;;;;;;;8.43;7.63;;;6.40;41.60;;;;;;5013925;28;20429;-80
2021/05/02 04:32:28;;;;;;;9.27;7.88;;;6.40;41.60;;;;;;5012674;28;20034;-80
2021/05/02 04:34:54;;;;;;;8.32;7.53;;;6.30;41.40;;;;;;4996234;28;20218;-81
2021/05/02 04:37:20;;;;;;;8.00;7.20;;;6.30;41.40;;;;;;5013937;28;20042;-79
2021/05/02 04:39:46;;;;;;;7.82;7.13;;;6.30;41.50;;;;;;5013310;28;20424;-79
2021/05/02 04:42:12;;;;;;;8.98;7.72;;;6.30;41.50;;;;;;5013497;28;20112;-82
2021/05/02 04:44:38;;;;;;;8.48;7.55;;;6.30;41.50;;;;;;5014310;28;20037;-81
2021/05/02 04:47:05;;;;;;;8.75;7.90;;;6.20;41.40;;;;;;4995689;28;20040;-81
2021/05/02 04:49:31;;;;;;;8.57;7.78;;;6.20;41.40;;;;;;5028726;28;20128;-81
2021/05/02 04:51:57;;;;;;;8.43;7.63;;;6.20;41.50;;;;;;5030150;28;20029;-81
2021/05/02 04:54:23;;;;;;;7.88;7.20;;;6.20;41.50;;;;;;5012709;28;20384;-80
2021/05/02 04:56:49;;;;;;;8.75;7.57;;;6.20;41.50;;;;;;5030325;28;20481;-81
2021/05/02 04:59:15;;;;;;;9.05;8.15;;;6.20;41.60;;;;;;5030401;28;20126;-80
2021/05/02 05:01:44;;;;;;;8.15;7.45;;;6.20;41.60;;;;;;5028521;28;20037;-80
2021/05/02 05:04:10;;;;;;;9.27;7.45;;;6.20;41.60;;;;;;5012099;28;20025;-80
2021/05/02 05:06:36;;;;;;;7.65;6.85;;;6.20;41.70;;;;;;5009476;28;20382;-80
2021/05/02 05:09:06;;;;;;;9.10;7.63;;;6.20;41.70;;;;;;4999945;28;20116;-81
2021/05/02 05:11:32;;;;;;;8.35;7.55;;;6.20;41.70;;;;;;5027396;28;20116;-80
2021/05/02 05:13:58;;;;;;;8.43;7.63;;;6.20;42.20;;;;;;5027434;28;20037;-80
2021/05/02 05:16:24;;;;;;;8.60;7.80;;;6.20;41.60;;;;;;5028488;28;20033;-80
2021/05/02 05:18:50;;;;;;;9.35;7.97;;;6.20;41.70;;;;;;5011437;28;20064;-80
2021/05/02 05:21:16;;;;;;;9.75;8.20;;;6.20;41.60;;;;;;5010794;28;20481;-81
2021/05/02 05:23:42;;;;;;;8.48;7.38;;;6.20;41.60;;;;;;5028590;28;20040;-81
2021/05/02 05:26:08;;;;;;;7.68;7.07;;;6.30;41.80;;;;;;5010474;28;20106;-81
2021/05/02 05:28:34;;;;;;;8.88;8.02;;;6.30;41.80;;;;;;5028428;28;20090;-81
2021/05/02 05:31:00;;;;;;;8.80;8.05;;;6.30;41.80;;;;;;5010780;28;20029;-82
2021/05/02 05:33:30;;;;;;;9.20;8.40;;;6.40;41.90;;;;;;5027981;28;20036;-81
2021/05/02 05:35:57;;;;;;;8.38;7.57;;;6.40;42.00;;;;;;5028160;28;20556;-80
2021/05/02 05:38:23;;;;;;;8.63;7.82;;;6.40;41.90;;;;;;5027871;28;20175;-79
2021/05/02 05:40:49;;;;;;;8.90;7.93;;;6.40;41.90;;;;;;5029160;28;20029;-80
2021/05/02 05:43:15;;;;;;;9.38;8.48;;;6.50;42.10;;;;;;5028272;28;20626;-80
2021/05/02 05:45:41;;;;;;;9.88;8.93;;;6.50;42.10;;;;;;5028071;28;20113;-80
2021/05/02 05:48:08;;;;;;;8.85;8.05;;;6.50;42.00;;;;;;5027744;28;20036;-80
2021/05/02 05:50:34;;;;;;;9.25;8.35;;;6.50;42.00;;;;;;5027376;28;20200;-80
2021/05/02 05:53:00;;;;;;;9.18;8.38;;;6.60;42.20;;;;;;5009779;28;20044;-80
2021/05/02 05:55:26;;;;;;;9.27;8.50;;;6.70;43.00;;;;;;5010809;28;20393;-80
2021/05/02 05:57:52;;;;;;;8.98;8.10;;;6.70;42.30;;;;;;5027580;28;20037;-80
2021/05/02 06:00:22;;;;;;;9.30;8.43;;;6.80;42.50;;;;;;5026281;28;20110;-79
2021/05/02 06:02:49;;;;;;;9.32;8.52;;;6.90;42.70;;;;;;5027734;28;20457;-80
2021/05/02 06:05:16;;;;;;;9.65;8.75;;;7.00;42.80;;;;;;5009356;28;20025;-78
2021/05/02 06:07:43;;;;;;;9.45;8.32;;;7.10;42.90;;;;;;5026628;28;20026;-83
2021/05/02 06:10:11;;;;;;;10.05;9.07;;;7.20;43.10;;;;;;5009559;28;20669;-81
2021/05/02 06:12:38;;;;;;;8.85;8.05;;;7.30;43.10;;;;;;4991883;28;20029;-80
2021/05/02 06:15:05;;;;;;;9.38;8.48;;;7.40;43.20;;;;;;5009011;28;20033;-80
2021/05/02 06:17:31;;;;;;;9.90;8.90;;;7.50;43.50;;;;;;5027260;28;20045;-82
2021/05/02 06:19:57;;;;;;;8.40;7.60;;;7.60;43.60;;;;;;5027603;28;20033;-82
2021/05/02 06:22:23;;;;;;;9.40;8.60;;;7.70;43.80;;;;;;5025960;28;20029;-81
2021/05/02 06:24:49;;;;;;;9.77;8.88;;;7.90;44.10;;;;;;5015358;28;20080;-80
2021/05/02 06:27:15;;;;;;;8.95;8.15;;;8.00;44.20;;;;;;5009627;28;20049;-79
2021/05/02 06:29:41;;;;;;;9.68;8.77;;;8.20;44.50;;;;;;5027264;28;20033;-80
2021/05/02 06:32:08;;;;;;;10.48;9.40;;;8.30;44.60;;;;;;5029212;28;20056;-80
2021/05/02 06:34:33;;;;;;;10.45;9.45;;;8.60;45.00;;;;;;5027669;28;20025;-79
2021/05/02 06:37:00;;;;;;;9.75;8.85;;;8.80;45.20;;;;;;5027735;28;20032;-80
2021/05/02 06:39:26;;;;;;;9.43;8.57;;;9.00;45.40;;;;;;5009321;28;20033;-78
2021/05/02 06:41:53;;;;;;;8.93;8.07;;;9.20;46.10;;;;;;5009755;28;20029;-78
2021/05/02 06:44:19;;;;;;;8.85;8.00;;;9.40;47.20;;;;;;5027487;28;20431;-80
2021/05/02 06:46:45;;;;;;;9.10;8.27;;;9.80;48.40;;;;;;5026886;28;20120;-82
2021/05/02 06:49:12;;;;;;;9.48;8.55;;;10.30;49.40;;;;;;4996781;28;20508;-79
2021/05/02 06:51:38;;;;;;;9.73;8.55;;;10.70;50.00;;;;;;5032246;28;20128;-78
2021/05/02 06:54:08;;;;;;;11.82;8.80;;;11.10;50.60;;;;;;5031233;28;20243;-79
2021/05/02 06:56:35;;;;;;;9.57;8.63;;;11.50;51.20;;;;;;5013824;28;20386;-82
2021/05/02 06:59:02;;;;;;;9.35;8.55;;;12.00;51.70;;;;;;5031223;28;20331;-79
2021/05/02 07:01:28;;;;;;;10.57;8.55;;;12.40;52.10;;;;;;5013038;28;20124;-83
2021/05/02 07:03:54;;;;;;;10.63;9.55;;;12.70;52.50;;;;;;5029316;28;20476;-84
2021/05/02 07:06:20;;;;;;;9.57;8.77;;;13.10;52.80;;;;;;5032790;28;20083;-81
2021/05/02 07:08:47;;;;;;;9.43;8.20;;;13.40;53.00;;;;;;5030286;28;20093;-80
2021/05/02 07:11:15;;;;;;;10.02;9.13;;;13.70;53.10;;;;;;5012507;28;20029;-80
2021/05/02 07:13:41;;;;;;;9.70;8.70;;;13.90;53.10;;;;;;5029779;28;20029;-81
2021/05/02 07:16:08;;;;;;;10.55;9.43;;;14.20;53.20;;;;;;5027662;28;20439;-79
2021/05/02 07:18:38;;;;;;;9.00;8.18;;;14.40;53.20;;;;;;5030347;28;20396;-80
2021/05/02 07:21:05;;;;;;;8.18;7.47;;;14.70;53.30;;;;;;5030130;28;20288;-80
2021/05/02 07:23:32;;;;;;;8.80;8.00;;;14.90;53.10;;;;;;5029910;28;20104;-79
2021/05/02 07:25:58;;;;;;;9.52;8.73;;;15.20;53.20;;;;;;5030342;28;20103;-80
2021/05/02 07:28:24;;;;;;;9.43;8.45;;;15.40;53.00;;;;;;5012403;28;20041;-80
2021/05/02 07:30:50;;;;;;;9.45;8.65;;;15.70;53.00;;;;;;5030069;28;20112;-80
2021/05/02 07:33:16;;;;;;;9.80;8.93;;;15.90;52.80;;;;;;5028333;28;20083;-80
2021/05/02 07:35:42;;;;;;;10.05;9.13;;;16.20;52.70;;;;;;5030365;28;20044;-80
2021/05/02 07:38:08;;;;;;;9.00;8.10;;;16.40;52.50;;;;;;5029545;28;20405;-80
2021/05/02 07:40:35;;;;;;;9.43;8.63;;;16.60;52.30;;;;;;5029746;28;20034;-81
2021/05/02 07:43:01;;;;;;;9.85;8.95;;;16.90;52.30;;;;;;5028685;28;20029;-79
2021/05/02 07:45:27;;;;;;;9.45;8.55;;;17.10;52.00;;;;;;5029392;28;20033;-80
2021/05/02 07:47:53;;;;;;;9.85;8.70;;;17.40;51.90;;;;;;5030911;28;20025;-80
2021/05/02 07:50:19;;;;;;;10.40;9.48;;;17.60;51.70;;;;;;5029440;28;20116;-79
2021/05/02 07:52:45;;;;;;;9.52;8.73;;;17.80;51.40;;;;;;5027261;28;20033;-80
2021/05/02 07:55:12;;;;;;;9.45;8.60;;;18.00;51.10;;;;;;5028859;28;20091;-80
2021/05/02 07:57:38;;;;;;;9.13;8.32;;;18.20;50.90;;;;;;5029714;28;20396;-81
2021/05/02 08:00:06;;;;;;;9.20;8.40;;;18.40;50.70;;;;;;5011698;28;20029;-80
2021/05/02 08:02:41;;;;;;;9.50;8.70;;;18.50;50.30;;;;;;5029562;28;20029;-81
2021/05/02 08:05:09;;;;;;;8.57;7.78;;;18.70;50.20;;;;;;5011701;28;20079;-80
2021/05/02 08:07:35;;;;;;;9.13;8.32;;;18.90;50.00;;;;;;5029099;28;20029;-80
2021/05/02 08:10:02;;;;;;;9.52;8.70;;;19.00;49.70;;;;;;5029139;28;20208;-82
2021/05/02 08:12:28;;;;;;;8.38;7.68;;;19.20;49.50;;;;;;5011729;28;20029;-84
2021/05/02 08:14:54;;;;;;;8.90;8.20;;;19.30;49.30;;;;;;5029225;28;20213;-82
2021/05/02 08:17:21;;;;;;;8.63;7.93;;;19.40;48.90;;;;;;5028774;28;20241;-82
2021/05/02 08:19:47;;;;;;;9.07;8.27;;;19.60;48.90;;;;;;5028610;28;20065;-82
2021/05/02 08:22:14;;;;;;;9.05;8.18;;;19.70;48.60;;;;;;5028728;28;20485;-82
2021/05/02 08:24:40;;;;;;;9.15;8.40;;;19.90;48.50;;;;;;5009958;28;20057;-84
2021/05/02 08:27:06;;;;;;;10.20;8.70;;;20.00;48.20;;;;;;5028868;28;20077;-82
2021/05/02 08:29:32;;;;;;;8.73;8.02;;;20.10;48.00;;;;;;5028724;28;20033;-83
2021/05/02 08:31:58;;;;;;;8.55;7.88;;;20.20;47.70;;;;;;5011232;28;20033;-81
2021/05/02 08:34:24;;;;;;;9.23;8.52;;;20.30;47.50;;;;;;5028264;28;20025;-79
2021/05/02 08:36:50;;;;;;;12.30;11.20;;;20.40;47.20;;;;;;5028540;28;20061;-80
2021/05/02 08:39:16;;;;;;;12.50;11.30;;;20.30;46.10;;;;;;5029207;28;20397;-81
2021/05/02 08:41:42;;;;;;;12.68;11.25;;;20.00;45.00;;;;;;5028052;28;20087;-81
2021/05/02 08:44:08;;;;;;;13.43;12.18;;;19.50;43.90;;;;;;5028068;28;20535;-81
2021/05/02 08:46:35;;;;;;;13.80;12.45;;;19.20;43.50;;;;;;5028993;28;20030;-79
2021/05/02 08:49:04;;;;;;;11.85;10.80;;;18.80;42.80;;;;;;5028651;28;20029;-80
2021/05/02 08:51:31;;;;;;;12.07;10.98;;;18.50;42.30;;;;;;5028132;28;20035;-80
2021/05/02 08:53:57;;;;;;;12.80;11.23;;;18.20;42.20;;;;;;5028007;28;20037;-81
2021/05/02 08:56:23;;;;;;;12.90;11.60;;;17.80;41.80;;;;;;5027789;28;20037;-78
2021/05/02 08:58:49;;;;;;;11.18;10.02;;;17.60;41.70;;;;;;5024527;28;20409;-78
2021/05/02 09:01:28;;;;;;;11.50;10.20;;;17.40;41.50;;;;;;5028442;28;20034;-80
2021/05/02 09:03:54;;;;;;;12.15;10.57;;;17.10;40.90;;;;;;5030970;28;20427;-81
2021/05/02 09:06:27;;;;;;;11.85;10.68;;;17.00;41.00;;;;;;5015349;28;20434;-79
2021/05/02 09:09:04;;;;;;;12.68;10.82;;;16.80;40.70;;;;;;5021125;28;20712;-81
2021/05/02 09:11:35;;;;;;;13.52;10.88;;;16.70;40.70;;;;;;5007342;28;20590;-78
2021/05/02 09:14:04;;;;;;;11.90;10.25;;;16.60;40.50;;;;;;5028141;28;20029;-78
2021/05/02 09:17:11;;;;;;;10.60;9.43;;;16.50;40.30;;;;;;5030525;28;20476;-79
2021/05/02 09:19:50;;;;;;;11.10;9.80;;;16.40;39.80;;;;;;4975103;28;20443;-78
2021/05/02 09:22:17;;;;;;;10.57;9.65;;;16.40;39.80;;;;;;5045300;28;20040;-85
2021/05/02 09:25:02;;;;;;;12.88;10.27;;;16.30;39.70;;;;;;5009696;28;20328;-79
2021/05/02 09:27:28;;;;;;;10.02;9.13;;;16.30;39.50;;;;;;5008559;28;20061;-78
2021/05/02 09:30:11;;;;;;;9.48;8.57;;;16.20;39.40;;;;;;5008218;28;20026;-78
2021/05/02 09:32:44;;;;;;;7.93;7.22;;;16.10;39.20;;;;;;5028220;28;20052;-78
2021/05/02 09:35:33;;;;;;;9.43;8.45;;;16.10;38.90;;;;;;5009115;28;20059;-79
2021/05/02 09:38:17;;;;;;;8.88;7.95;;;16.10;38.80;;;;;;5032486;28;20038;-81
2021/05/02 09:40:51;;;;;;;9.88;7.15;;;16.10;38.60;;;;;;5027042;28;20033;-82
2021/05/02 09:43:44;;;;;;;8.40;6.78;;;16.10;38.70;;;;;;5027607;28;20025;-82
2021/05/02 09:46:24;;;;;;;6.68;5.65;;;16.10;38.50;;;;;;5006754;28;20480;-83
2021/05/02 09:49:00;;;;;;;6.53;5.88;;;16.10;38.50;;;;;;5025184;28;20064;-84
2021/05/02 09:51:29;;;;;;;8.30;6.75;;;16.10;38.10;;;;;;5028064;28;20077;-84
2021/05/02 09:54:09;;;;;;;7.97;7.28;;;16.20;38.30;;;;;;5010094;28;20021;-82
2021/05/02 09:56:40;;;;;;;8.13;6.57;;;16.30;38.20;;;;;;5025855;28;20121;-83
2021/05/02 09:59:22;;;;;;;8.15;7.35;;;16.30;38.20;;;;;;5040207;28;20037;-82
2021/05/02 10:02:13;;;;;;;7.22;6.53;;;16.30;37.80;;;;;;5037558;28;20057;-83
2021/05/02 10:04:45;;;;;;;7.15;6.45;;;16.40;38.00;;;;;;5036448;28;20481;-83
2021/05/02 10:07:21;;;;;;;6.63;5.93;;;16.40;38.00;;;;;;5039743;28;20025;-81
2021/05/02 10:09:49;;;;;;;7.60;5.90;;;16.30;37.70;;;;;;5037080;28;20496;-80
2021/05/02 10:12:15;;;;;;;6.70;5.97;;;16.30;37.70;;;;;;5023410;28;20024;-81
2021/05/02 10:14:44;;;;;;;7.20;6.55;;;16.20;37.50;;;;;;5016889;28;20037;-82
2021/05/02 10:17:10;;;;;;;8.65;7.75;;;16.20;37.50;;;;;;5020196;28;20036;-84
2021/05/02 10:19:37;;;;;;;7.70;7.00;;;16.30;37.60;;;;;;5010259;28;20052;-81
2021/05/02 10:22:03;;;;;;;8.15;7.25;;;16.30;37.40;;;;;;5010317;28;20022;-86
2021/05/02 10:24:30;;;;;;;8.48;7.60;;;16.30;37.20;;;;;;5010217;28;20041;-84
2021/05/02 10:26:56;;;;;;;7.53;6.82;;;16.30;37.10;;;;;;5031981;28;20746;-88
2021/05/02 10:29:24;;;;;;;10.75;6.68;;;16.20;36.80;;;;;;5019653;28;20112;-83
2021/05/02 10:31:57;;;;;;;6.43;5.82;;;16.20;36.90;;;;;;5027123;28;20079;-86
2021/05/02 10:34:43;;;;;;;8.17;6.53;;;16.00;36.60;;;;;;5016824;28;20034;-83
2021/05/02 10:37:25;;;;;;;11.02;7.40;;;16.00;36.60;;;;;;5017883;28;20306;-85
2021/05/02 10:40:06;;;;;;;6.65;6.05;;;16.10;36.90;;;;;;5031474;28;20025;-84
2021/05/02 10:42:37;;;;;;;7.32;6.32;;;16.20;36.90;;;;;;5032805;28;20029;-83
2021/05/02 10:45:28;;;;;;;6.95;5.82;;;16.20;36.80;;;;;;5020212;28;20025;-79
2021/05/02 10:47:57;;;;;;;6.57;5.80;;;16.30;36.70;;;;;;5034652;28;20033;-80
2021/05/02 10:50:47;;;;;;;7.00;5.60;;;16.20;36.50;;;;;;5034116;28;20033;-79
2021/05/02 10:53:25;;;;;;;5.65;5.15;;;16.20;36.30;;;;;;5034731;28;20087;-80
2021/05/02 10:56:06;;;;;;;5.13;4.65;;;16.20;36.40;;;;;;5035774;28;20509;-79
2021/05/02 10:58:35;;;;;;;5.25;4.70;;;16.30;36.30;;;;;;5032353;28;20489;-81
2021/05/02 11:01:03;;;;;;;5.22;4.57;;;16.20;36.20;;;;;;5035149;28;20440;-77
2021/05/02 11:03:41;;;;;;;4.53;3.60;;;16.30;36.20;;;;;;5018061;28;20045;-78
2021/05/02 11:06:14;;;;;;;4.18;3.78;;;16.30;35.70;;;;;;5031763;28;20033;-78
2021/05/02 11:08:51;;;;;;;4.68;3.83;;;16.30;35.70;;;;;;5028106;28;20033;-78
2021/05/02 11:11:39;;;;;;;4.85;3.10;;;16.40;35.50;;;;;;5024928;28;20033;-81
2021/05/02 11:14:08;;;;;;;3.63;3.33;;;16.50;35.40;;;;;;5028173;28;20056;-82
2021/05/02 11:16:56;;;;;;;4.28;3.90;;;16.50;35.30;;;;;;5024222;28;20030;-82
2021/05/02 11:19:25;;;;;;;4.60;4.20;;;16.60;35.30;;;;;;5025570;28;20033;-81
2021/05/02 11:21:51;;;;;;;4.75;4.35;;;16.60;35.20;;;;;;5009120;28;20029;-80
2021/05/02 11:24:45;;;;;;;9.05;4.93;;;16.60;35.10;;;;;;5007336;28;20025;-85
2021/05/02 11:27:27;;;;;;;5.20;4.30;;;16.70;34.90;;;;;;5005278;28;20046;-83
2021/05/02 11:32:28;;;;;;;3.53;3.20;;;16.70;34.80;;;;;;5007554;28;20209;-85
2021/05/02 11:34:57;;;;;;;5.10;3.67;;;16.80;34.60;;;;;;5030363;28;20034;-81
2021/05/02 11:37:48;;;;;;;6.15;3.78;;;16.90;34.80;;;;;;5013023;28;20037;-80
2021/05/02 11:40:32;;;;;;;3.85;3.40;;;16.90;34.30;;;;;;5012549;28;20037;-81
2021/05/02 11:43:24;;;;;;;4.57;4.03;;;16.90;34.40;;;;;;5029471;28;20034;-79
2021/05/02 11:45:52;;;;;;;4.53;3.78;;;17.00;34.40;;;;;;5034046;28;20025;-83
2021/05/02 11:48:31;;;;;;;6.28;4.30;;;17.00;34.40;;;;;;5038493;28;20021;-85
2021/05/02 11:51:03;;;;;;;5.35;3.90;;;17.10;34.20;;;;;;5049078;28;20025;-84
2021/05/02 11:53:34;;;;;;;5.43;4.38;;;17.10;34.20;;;;;;5020692;28;20457;-81
2021/05/02 11:56:01;;;;;;;4.28;3.75;;;17.20;34.10;;;;;;5012332;28;20112;-81
2021/05/02 11:58:27;;;;;;;5.07;4.57;;;17.30;34.20;;;;;;5029780;28;20072;-81
2021/05/02 12:00:54;;;;;;;4.55;4.15;;;17.40;34.30;;;;;;5012235;28;20033;-82
2021/05/02 12:03:38;;;;;;;4.95;4.43;;;17.40;34.10;;;;;;5028514;28;20029;-84
2021/05/02 12:06:06;;;;;;;5.63;4.80;;;17.50;33.90;;;;;;5010745;28;20076;-84
2021/05/02 12:08:32;;;;;;;5.68;4.97;;;17.60;34.20;;;;;;5017796;28;20029;-81
2021/05/02 12:11:06;;;;;;;5.28;4.75;;;17.70;34.30;;;;;;5011253;28;20038;-82
2021/05/02 12:13:36;;;;;;;7.75;4.85;;;17.80;34.20;;;;;;5028017;28;20037;-82
2021/05/02 12:16:21;;;;;;;4.85;4.40;;;17.90;34.30;;;;;;5014365;28;20111;-82
2021/05/02 12:18:51;;;;;;;5.43;4.90;;;18.00;34.10;;;;;;5021495;28;20087;-82
2021/05/02 12:21:36;;;;;;;5.57;4.97;;;18.10;34.20;;;;;;5011573;28;20107;-82
2021/05/02 12:24:05;;;;;;;6.43;5.15;;;18.30;34.80;;;;;;5011098;28;20029;-86
2021/05/02 12:26:32;;;;;;;7.05;5.28;;;18.40;34.40;;;;;;5028693;28;20620;-83
2021/05/02 12:29:06;;;;;;;6.18;5.57;;;18.60;34.50;;;;;;5029109;28;20056;-82
2021/05/02 12:31:35;;;;;;;5.68;5.03;;;18.70;34.30;;;;;;5030563;28;20033;-81
2021/05/02 12:34:04;;;;;;;6.32;5.72;;;18.90;34.60;;;;;;4996511;28;20034;-82
2021/05/02 12:36:30;;;;;;;6.53;5.47;;;19.00;34.60;;;;;;5004409;28;20124;-81
2021/05/02 12:39:02;;;;;;;7.18;5.05;;;19.20;34.70;;;;;;5027779;28;20029;-81
2021/05/02 12:41:28;;;;;;;6.22;5.38;;;19.20;34.40;;;;;;5028968;28;20033;-80
2021/05/02 12:43:55;;;;;;;7.32;5.60;;;19.20;34.40;;;;;;5028372;28;20473;-82
2021/05/02 12:46:40;;;;;;;6.47;5.75;;;19.20;34.40;;;;;;5029176;28;20209;-78
2021/05/02 12:49:09;;;;;;;6.60;6.00;;;19.20;34.20;;;;;;5028160;28;20106;-81
2021/05/02 12:51:35;;;;;;;6.32;5.72;;;19.10;34.20;;;;;;5028719;28;20025;-77
2021/05/02 12:54:09;;;;;;;6.30;5.70;;;19.10;34.20;;;;;;5028506;28;20094;-79
2021/05/02 12:56:36;;;;;;;5.93;5.28;;;19.00;34.00;;;;;;5010709;28;20104;-79
2021/05/02 12:59:03;;;;;;;5.88;5.30;;;18.90;34.10;;;;;;5028880;28;20034;-81
2021/05/02 13:01:30;;;;;;;6.78;4.97;;;18.90;34.20;;;;;;5028496;28;20036;-80
2021/05/02 13:04:00;;;;;;;6.65;5.40;;;18.90;34.20;;;;;;5028046;28;20033;-80
2021/05/02 13:06:26;;;;;;;6.57;5.55;;;18.80;34.20;;;;;;5026772;28;20038;-79